sensor_id;sensor_type;location;lat;lon;timestamp;P1;durP1;ratioP1;P2;durP2;ratioP2
11582;SDS011;34299;50.820;4.548;2023-07-31T00:01:48;9.00;;;3.53;;
11582;SDS011;34299;50.820;4.548;2023-07-31T00:04:15;8.27;;;3.07;;
11582;SDS011;34299;50.820;4.548;2023-07-31T00:06:41;12.13;;;3.70;;
11582;SDS011;34299;50.820;4.548;2023-07-31T00:09:10;8.93;;;3.50;;
11582;SDS011;34299;50.820;4.548;2023-07-31T00:11:37;10.70;;;3.63;;
11582;SDS011;34299;50.820;4.548;2023-07-31T00:14:04;11.80;;;3.27;;
11582;SDS011;34299;50.820;4.548;2023-07-31T00:16:31;8.60;;;3.70;;
11582;SDS011;34299;50.820;4.548;2023-07-31T00:18:57;8.83;;;3.77;;
11582;SDS011;34299;50.820;4.548;2023-07-31T00:21:24;11.70;;;3.67;;
11582;SDS011;34299;50.820;4.548;2023-07-31T00:23:51;8.07;;;3.67;;
11582;SDS011;34299;50.820;4.548;2023-07-31T00:26:20;5.70;;;3.03;;
11582;SDS011;34299;50.820;4.548;2023-07-31T00:28:46;9.87;;;3.70;;
11582;SDS011;34299;50.820;4.548;2023-07-31T00:31:13;11.63;;;3.10;;
11582;SDS011;34299;50.820;4.548;2023-07-31T00:33:40;6.90;;;3.63;;
11582;SDS011;34299;50.820;4.548;2023-07-31T00:36:07;10.10;;;4.33;;
11582;SDS011;34299;50.820;4.548;2023-07-31T00:38:34;12.47;;;3.23;;
11582;SDS011;34299;50.820;4.548;2023-07-31T00:41:01;10.90;;;3.40;;
11582;SDS011;34299;50.820;4.548;2023-07-31T00:43:29;12.63;;;3.53;;
11582;SDS011;34299;50.820;4.548;2023-07-31T00:45:56;7.60;;;3.17;;
11582;SDS011;34299;50.820;4.548;2023-07-31T00:48:23;7.47;;;3.60;;
11582;SDS011;34299;50.820;4.548;2023-07-31T00:50:50;5.80;;;3.30;;
11582;SDS011;34299;50.820;4.548;2023-07-31T00:53:17;10.50;;;3.57;;
11582;SDS011;34299;50.820;4.548;2023-07-31T00:55:44;7.60;;;3.20;;
11582;SDS011;34299;50.820;4.548;2023-07-31T00:58:12;8.73;;;3.80;;
11582;SDS011;34299;50.820;4.548;2023-07-31T01:00:40;9.53;;;3.03;;
11582;SDS011;34299;50.820;4.548;2023-07-31T01:03:07;7.10;;;3.37;;
11582;SDS011;34299;50.820;4.548;2023-07-31T01:05:36;9.17;;;3.80;;
11582;SDS011;34299;50.820;4.548;2023-07-31T01:08:15;8.63;;;2.97;;
11582;SDS011;34299;50.820;4.548;2023-07-31T01:10:50;13.07;;;4.13;;
11582;SDS011;34299;50.820;4.548;2023-07-31T01:13:22;9.40;;;3.43;;
11582;SDS011;34299;50.820;4.548;2023-07-31T01:15:50;8.53;;;3.67;;
11582;SDS011;34299;50.820;4.548;2023-07-31T01:18:17;12.93;;;3.43;;
11582;SDS011;34299;50.820;4.548;2023-07-31T01:20:44;6.60;;;3.53;;
11582;SDS011;34299;50.820;4.548;2023-07-31T01:23:23;7.93;;;3.27;;
11582;SDS011;34299;50.820;4.548;2023-07-31T01:26:07;7.50;;;3.63;;
11582;SDS011;34299;50.820;4.548;2023-07-31T01:28:40;10.03;;;3.90;;
11582;SDS011;34299;50.820;4.548;2023-07-31T01:31:16;9.77;;;3.17;;
11582;SDS011;34299;50.820;4.548;2023-07-31T01:33:46;4.70;;;2.83;;
11582;SDS011;34299;50.820;4.548;2023-07-31T01:36:15;9.60;;;4.03;;
11582;SDS011;34299;50.820;4.548;2023-07-31T01:38:42;7.80;;;3.40;;
11582;SDS011;34299;50.820;4.548;2023-07-31T01:41:11;7.17;;;3.60;;
11582;SDS011;34299;50.820;4.548;2023-07-31T01:43:38;10.10;;;3.80;;
11582;SDS011;34299;50.820;4.548;2023-07-31T01:46:05;7.23;;;3.43;;
11582;SDS011;34299;50.820;4.548;2023-07-31T01:48:32;17.33;;;4.00;;
11582;SDS011;34299;50.820;4.548;2023-07-31T01:51:02;6.77;;;3.60;;
11582;SDS011;34299;50.820;4.548;2023-07-31T01:53:29;8.97;;;3.67;;
11582;SDS011;34299;50.820;4.548;2023-07-31T01:55:57;9.17;;;3.27;;
11582;SDS011;34299;50.820;4.548;2023-07-31T01:58:25;7.37;;;3.60;;
11582;SDS011;34299;50.820;4.548;2023-07-31T02:00:52;8.90;;;5.50;;
11582;SDS011;34299;50.820;4.548;2023-07-31T02:03:19;7.60;;;3.70;;
11582;SDS011;34299;50.820;4.548;2023-07-31T02:05:46;7.03;;;4.03;;
11582;SDS011;34299;50.820;4.548;2023-07-31T02:08:14;10.30;;;4.00;;
11582;SDS011;34299;50.820;4.548;2023-07-31T02:10:41;9.80;;;4.10;;
11582;SDS011;34299;50.820;4.548;2023-07-31T02:13:08;10.40;;;4.23;;
11582;SDS011;34299;50.820;4.548;2023-07-31T02:15:37;8.93;;;3.47;;
11582;SDS011;34299;50.820;4.548;2023-07-31T02:18:04;13.80;;;3.70;;
11582;SDS011;34299;50.820;4.548;2023-07-31T02:20:33;5.87;;;3.97;;
11582;SDS011;34299;50.820;4.548;2023-07-31T02:23:00;8.60;;;4.03;;
11582;SDS011;34299;50.820;4.548;2023-07-31T02:25:27;11.20;;;4.10;;
11582;SDS011;34299;50.820;4.548;2023-07-31T02:27:54;12.83;;;4.60;;
11582;SDS011;34299;50.820;4.548;2023-07-31T02:30:21;8.83;;;4.50;;
11582;SDS011;34299;50.820;4.548;2023-07-31T02:32:49;10.07;;;4.60;;
11582;SDS011;34299;50.820;4.548;2023-07-31T02:35:16;9.07;;;3.87;;
11582;SDS011;34299;50.820;4.548;2023-07-31T02:37:43;8.20;;;4.67;;
11582;SDS011;34299;50.820;4.548;2023-07-31T02:40:10;7.87;;;4.10;;
11582;SDS011;34299;50.820;4.548;2023-07-31T02:42:38;12.57;;;4.27;;
11582;SDS011;34299;50.820;4.548;2023-07-31T02:45:05;7.17;;;3.87;;
11582;SDS011;34299;50.820;4.548;2023-07-31T02:47:33;7.23;;;3.53;;
11582;SDS011;34299;50.820;4.548;2023-07-31T02:50:01;9.63;;;3.83;;
11582;SDS011;34299;50.820;4.548;2023-07-31T02:52:28;6.23;;;3.13;;
11582;SDS011;34299;50.820;4.548;2023-07-31T02:54:55;8.50;;;3.43;;
11582;SDS011;34299;50.820;4.548;2023-07-31T02:57:22;6.10;;;3.27;;
11582;SDS011;34299;50.820;4.548;2023-07-31T02:59:49;4.70;;;2.97;;
11582;SDS011;34299;50.820;4.548;2023-07-31T03:02:16;7.37;;;3.30;;
11582;SDS011;34299;50.820;4.548;2023-07-31T03:04:43;7.87;;;3.40;;
11582;SDS011;34299;50.820;4.548;2023-07-31T03:07:11;7.47;;;4.00;;
11582;SDS011;34299;50.820;4.548;2023-07-31T03:09:38;9.33;;;3.20;;
11582;SDS011;34299;50.820;4.548;2023-07-31T03:12:05;5.07;;;2.90;;
11582;SDS011;34299;50.820;4.548;2023-07-31T03:14:33;8.47;;;3.43;;
11582;SDS011;34299;50.820;4.548;2023-07-31T03:17:00;7.57;;;3.50;;
11582;SDS011;34299;50.820;4.548;2023-07-31T03:19:27;7.90;;;3.27;;
11582;SDS011;34299;50.820;4.548;2023-07-31T03:21:57;5.47;;;3.00;;
11582;SDS011;34299;50.820;4.548;2023-07-31T03:24:25;5.47;;;3.13;;
11582;SDS011;34299;50.820;4.548;2023-07-31T03:26:52;10.50;;;4.70;;
11582;SDS011;34299;50.820;4.548;2023-07-31T03:29:19;8.90;;;3.60;;
11582;SDS011;34299;50.820;4.548;2023-07-31T03:31:46;6.03;;;3.17;;
11582;SDS011;34299;50.820;4.548;2023-07-31T03:34:13;7.03;;;3.40;;
11582;SDS011;34299;50.820;4.548;2023-07-31T03:36:39;5.73;;;3.43;;
11582;SDS011;34299;50.820;4.548;2023-07-31T03:39:06;6.37;;;3.40;;
11582;SDS011;34299;50.820;4.548;2023-07-31T03:41:35;4.93;;;3.13;;
11582;SDS011;34299;50.820;4.548;2023-07-31T03:44:02;5.87;;;3.50;;
11582;SDS011;34299;50.820;4.548;2023-07-31T03:46:29;3.97;;;2.70;;
11582;SDS011;34299;50.820;4.548;2023-07-31T03:48:56;6.43;;;3.50;;
11582;SDS011;34299;50.820;4.548;2023-07-31T03:51:23;5.60;;;2.90;;
11582;SDS011;34299;50.820;4.548;2023-07-31T03:53:49;6.47;;;3.13;;
11582;SDS011;34299;50.820;4.548;2023-07-31T03:56:16;7.00;;;3.23;;
11582;SDS011;34299;50.820;4.548;2023-07-31T03:58:45;8.67;;;3.70;;
11582;SDS011;34299;50.820;4.548;2023-07-31T04:01:12;7.47;;;3.13;;
11582;SDS011;34299;50.820;4.548;2023-07-31T04:03:38;6.27;;;3.20;;
11582;SDS011;34299;50.820;4.548;2023-07-31T04:06:05;5.87;;;3.37;;
11582;SDS011;34299;50.820;4.548;2023-07-31T04:08:33;6.87;;;3.33;;
11582;SDS011;34299;50.820;4.548;2023-07-31T04:11:00;5.93;;;3.00;;
11582;SDS011;34299;50.820;4.548;2023-07-31T04:13:29;8.03;;;3.37;;
11582;SDS011;34299;50.820;4.548;2023-07-31T04:15:57;6.27;;;3.83;;
11582;SDS011;34299;50.820;4.548;2023-07-31T04:18:24;5.13;;;3.47;;
11582;SDS011;34299;50.820;4.548;2023-07-31T04:20:51;6.33;;;4.07;;
11582;SDS011;34299;50.820;4.548;2023-07-31T04:23:18;13.47;;;4.83;;
11582;SDS011;34299;50.820;4.548;2023-07-31T04:25:45;7.17;;;3.50;;
11582;SDS011;34299;50.820;4.548;2023-07-31T04:28:12;7.93;;;3.60;;
11582;SDS011;34299;50.820;4.548;2023-07-31T04:30:39;7.20;;;3.73;;
11582;SDS011;34299;50.820;4.548;2023-07-31T04:33:07;6.33;;;3.17;;
11582;SDS011;34299;50.820;4.548;2023-07-31T04:35:34;8.07;;;3.10;;
11582;SDS011;34299;50.820;4.548;2023-07-31T04:38:01;7.43;;;3.13;;
11582;SDS011;34299;50.820;4.548;2023-07-31T04:40:28;8.87;;;3.87;;
11582;SDS011;34299;50.820;4.548;2023-07-31T04:42:55;8.27;;;3.63;;
11582;SDS011;34299;50.820;4.548;2023-07-31T04:45:22;7.97;;;3.67;;
11582;SDS011;34299;50.820;4.548;2023-07-31T04:47:49;6.37;;;2.80;;
11582;SDS011;34299;50.820;4.548;2023-07-31T04:50:17;9.20;;;3.70;;
11582;SDS011;34299;50.820;4.548;2023-07-31T04:52:44;10.57;;;4.43;;
11582;SDS011;34299;50.820;4.548;2023-07-31T04:55:11;6.20;;;3.10;;
11582;SDS011;34299;50.820;4.548;2023-07-31T04:57:38;5.97;;;3.40;;
11582;SDS011;34299;50.820;4.548;2023-07-31T05:00:06;5.73;;;3.33;;
11582;SDS011;34299;50.820;4.548;2023-07-31T05:02:33;9.03;;;3.50;;
11582;SDS011;34299;50.820;4.548;2023-07-31T05:05:00;8.30;;;3.70;;
11582;SDS011;34299;50.820;4.548;2023-07-31T05:07:28;6.83;;;3.20;;
11582;SDS011;34299;50.820;4.548;2023-07-31T05:09:55;7.17;;;3.70;;
11582;SDS011;34299;50.820;4.548;2023-07-31T05:12:22;6.20;;;2.97;;
11582;SDS011;34299;50.820;4.548;2023-07-31T05:14:49;5.63;;;3.30;;
11582;SDS011;34299;50.820;4.548;2023-07-31T05:17:16;9.07;;;3.67;;
11582;SDS011;34299;50.820;4.548;2023-07-31T05:19:43;6.63;;;3.53;;
11582;SDS011;34299;50.820;4.548;2023-07-31T05:22:10;4.57;;;3.77;;
11582;SDS011;34299;50.820;4.548;2023-07-31T05:24:38;4.67;;;2.77;;
11582;SDS011;34299;50.820;4.548;2023-07-31T05:27:06;7.30;;;3.30;;
11582;SDS011;34299;50.820;4.548;2023-07-31T05:29:34;5.30;;;3.30;;
11582;SDS011;34299;50.820;4.548;2023-07-31T05:32:01;4.57;;;4.00;;
11582;SDS011;34299;50.820;4.548;2023-07-31T05:34:29;7.17;;;3.30;;
11582;SDS011;34299;50.820;4.548;2023-07-31T05:36:56;6.27;;;2.83;;
11582;SDS011;34299;50.820;4.548;2023-07-31T05:39:22;5.33;;;2.90;;
11582;SDS011;34299;50.820;4.548;2023-07-31T05:41:51;5.03;;;3.00;;
11582;SDS011;34299;50.820;4.548;2023-07-31T05:44:18;4.97;;;3.37;;
11582;SDS011;34299;50.820;4.548;2023-07-31T05:46:44;7.63;;;3.23;;
11582;SDS011;34299;50.820;4.548;2023-07-31T05:49:11;8.87;;;3.10;;
11582;SDS011;34299;50.820;4.548;2023-07-31T05:51:38;4.47;;;2.57;;
11582;SDS011;34299;50.820;4.548;2023-07-31T05:54:05;5.10;;;2.97;;
11582;SDS011;34299;50.820;4.548;2023-07-31T05:56:32;7.23;;;3.20;;
11582;SDS011;34299;50.820;4.548;2023-07-31T05:59:00;7.10;;;3.33;;
11582;SDS011;34299;50.820;4.548;2023-07-31T06:01:28;5.40;;;3.17;;
11582;SDS011;34299;50.820;4.548;2023-07-31T06:03:55;8.03;;;3.43;;
11582;SDS011;34299;50.820;4.548;2023-07-31T06:06:22;5.67;;;3.23;;
11582;SDS011;34299;50.820;4.548;2023-07-31T06:08:48;3.80;;;3.23;;
11582;SDS011;34299;50.820;4.548;2023-07-31T06:11:16;7.30;;;3.07;;
11582;SDS011;34299;50.820;4.548;2023-07-31T06:13:43;8.23;;;3.40;;
11582;SDS011;34299;50.820;4.548;2023-07-31T06:16:13;5.20;;;3.30;;
11582;SDS011;34299;50.820;4.548;2023-07-31T06:18:40;5.13;;;3.27;;
11582;SDS011;34299;50.820;4.548;2023-07-31T06:21:07;9.23;;;3.83;;
11582;SDS011;34299;50.820;4.548;2023-07-31T06:23:34;9.37;;;3.57;;
11582;SDS011;34299;50.820;4.548;2023-07-31T06:26:01;5.17;;;3.53;;
11582;SDS011;34299;50.820;4.548;2023-07-31T06:28:28;6.03;;;2.80;;
11582;SDS011;34299;50.820;4.548;2023-07-31T06:30:56;10.37;;;3.27;;
11582;SDS011;34299;50.820;4.548;2023-07-31T06:33:24;7.43;;;3.50;;
11582;SDS011;34299;50.820;4.548;2023-07-31T06:35:51;7.93;;;3.37;;
11582;SDS011;34299;50.820;4.548;2023-07-31T06:38:19;6.27;;;3.30;;
11582;SDS011;34299;50.820;4.548;2023-07-31T06:40:48;8.90;;;3.40;;
11582;SDS011;34299;50.820;4.548;2023-07-31T06:43:15;8.17;;;3.00;;
11582;SDS011;34299;50.820;4.548;2023-07-31T06:45:42;8.53;;;3.10;;
11582;SDS011;34299;50.820;4.548;2023-07-31T06:48:09;6.93;;;2.90;;
11582;SDS011;34299;50.820;4.548;2023-07-31T06:50:37;9.53;;;3.20;;
11582;SDS011;34299;50.820;4.548;2023-07-31T06:53:04;6.93;;;3.07;;
11582;SDS011;34299;50.820;4.548;2023-07-31T06:55:31;7.63;;;3.37;;
11582;SDS011;34299;50.820;4.548;2023-07-31T06:57:58;5.57;;;3.10;;
11582;SDS011;34299;50.820;4.548;2023-07-31T07:00:25;7.93;;;3.30;;
11582;SDS011;34299;50.820;4.548;2023-07-31T07:02:53;6.53;;;3.00;;
11582;SDS011;34299;50.820;4.548;2023-07-31T07:05:20;7.07;;;3.10;;
11582;SDS011;34299;50.820;4.548;2023-07-31T07:07:50;5.40;;;3.17;;
11582;SDS011;34299;50.820;4.548;2023-07-31T07:10:17;5.20;;;2.47;;
11582;SDS011;34299;50.820;4.548;2023-07-31T07:12:44;5.77;;;3.33;;
11582;SDS011;34299;50.820;4.548;2023-07-31T07:15:11;5.90;;;3.17;;
11582;SDS011;34299;50.820;4.548;2023-07-31T07:17:38;7.30;;;2.97;;
11582;SDS011;34299;50.820;4.548;2023-07-31T07:20:06;6.57;;;2.70;;
11582;SDS011;34299;50.820;4.548;2023-07-31T07:22:34;6.33;;;2.93;;
11582;SDS011;34299;50.820;4.548;2023-07-31T07:25:03;3.13;;;2.27;;
11582;SDS011;34299;50.820;4.548;2023-07-31T07:27:32;5.70;;;3.00;;
11582;SDS011;34299;50.820;4.548;2023-07-31T07:29:59;6.13;;;3.00;;
11582;SDS011;34299;50.820;4.548;2023-07-31T07:32:26;4.27;;;2.37;;
11582;SDS011;34299;50.820;4.548;2023-07-31T07:34:53;9.50;;;2.83;;
11582;SDS011;34299;50.820;4.548;2023-07-31T07:37:21;5.63;;;2.67;;
11582;SDS011;34299;50.820;4.548;2023-07-31T07:39:48;5.03;;;3.13;;
11582;SDS011;34299;50.820;4.548;2023-07-31T07:42:16;8.00;;;2.60;;
11582;SDS011;34299;50.820;4.548;2023-07-31T07:44:44;4.27;;;2.37;;
11582;SDS011;34299;50.820;4.548;2023-07-31T07:47:10;6.23;;;3.13;;
11582;SDS011;34299;50.820;4.548;2023-07-31T07:49:37;5.50;;;2.47;;
11582;SDS011;34299;50.820;4.548;2023-07-31T07:52:04;5.57;;;2.63;;
11582;SDS011;34299;50.820;4.548;2023-07-31T07:54:32;6.83;;;2.57;;
11582;SDS011;34299;50.820;4.548;2023-07-31T07:56:59;4.77;;;2.67;;
11582;SDS011;34299;50.820;4.548;2023-07-31T07:59:27;5.77;;;2.47;;
11582;SDS011;34299;50.820;4.548;2023-07-31T08:01:54;5.50;;;2.37;;
11582;SDS011;34299;50.820;4.548;2023-07-31T08:04:22;5.50;;;2.60;;
11582;SDS011;34299;50.820;4.548;2023-07-31T08:06:49;3.97;;;2.73;;
11582;SDS011;34299;50.820;4.548;2023-07-31T08:09:16;3.47;;;2.50;;
11582;SDS011;34299;50.820;4.548;2023-07-31T08:11:43;2.57;;;2.20;;
11582;SDS011;34299;50.820;4.548;2023-07-31T08:14:10;4.43;;;2.40;;
11582;SDS011;34299;50.820;4.548;2023-07-31T08:16:38;4.83;;;2.30;;
11582;SDS011;34299;50.820;4.548;2023-07-31T08:19:05;5.30;;;2.70;;
11582;SDS011;34299;50.820;4.548;2023-07-31T08:21:32;6.00;;;2.53;;
11582;SDS011;34299;50.820;4.548;2023-07-31T08:23:59;4.30;;;2.13;;
11582;SDS011;34299;50.820;4.548;2023-07-31T08:26:26;5.20;;;2.17;;
11582;SDS011;34299;50.820;4.548;2023-07-31T08:28:53;6.77;;;2.70;;
11582;SDS011;34299;50.820;4.548;2023-07-31T08:31:20;4.83;;;2.67;;
11582;SDS011;34299;50.820;4.548;2023-07-31T08:33:48;4.03;;;2.47;;
11582;SDS011;34299;50.820;4.548;2023-07-31T08:36:15;4.80;;;2.37;;
11582;SDS011;34299;50.820;4.548;2023-07-31T08:38:42;4.90;;;1.83;;
11582;SDS011;34299;50.820;4.548;2023-07-31T08:41:09;4.27;;;2.63;;
11582;SDS011;34299;50.820;4.548;2023-07-31T08:43:36;5.23;;;2.40;;
11582;SDS011;34299;50.820;4.548;2023-07-31T08:46:04;4.10;;;2.53;;
11582;SDS011;34299;50.820;4.548;2023-07-31T08:48:32;6.27;;;2.70;;
11582;SDS011;34299;50.820;4.548;2023-07-31T08:51:00;4.07;;;2.40;;
11582;SDS011;34299;50.820;4.548;2023-07-31T08:53:27;3.90;;;2.20;;
11582;SDS011;34299;50.820;4.548;2023-07-31T08:55:54;4.70;;;2.47;;
11582;SDS011;34299;50.820;4.548;2023-07-31T08:58:22;6.07;;;2.60;;
11582;SDS011;34299;50.820;4.548;2023-07-31T09:00:51;3.57;;;2.13;;
11582;SDS011;34299;50.820;4.548;2023-07-31T09:03:20;4.13;;;2.57;;
11582;SDS011;34299;50.820;4.548;2023-07-31T09:05:49;5.77;;;2.87;;
11582;SDS011;34299;50.820;4.548;2023-07-31T09:08:18;5.57;;;2.20;;
11582;SDS011;34299;50.820;4.548;2023-07-31T09:10:47;4.13;;;2.03;;
11582;SDS011;34299;50.820;4.548;2023-07-31T09:13:15;7.93;;;2.50;;
11582;SDS011;34299;50.820;4.548;2023-07-31T09:15:43;3.47;;;2.57;;
11582;SDS011;34299;50.820;4.548;2023-07-31T09:18:11;3.50;;;2.70;;
11582;SDS011;34299;50.820;4.548;2023-07-31T09:20:39;4.83;;;2.20;;
11582;SDS011;34299;50.820;4.548;2023-07-31T09:23:07;4.43;;;2.33;;
11582;SDS011;34299;50.820;4.548;2023-07-31T09:25:36;4.57;;;2.17;;
11582;SDS011;34299;50.820;4.548;2023-07-31T09:28:04;5.77;;;2.47;;
11582;SDS011;34299;50.820;4.548;2023-07-31T09:30:43;4.13;;;2.90;;
11582;SDS011;34299;50.820;4.548;2023-07-31T09:33:12;5.60;;;2.77;;
11582;SDS011;34299;50.820;4.548;2023-07-31T09:35:39;6.93;;;2.83;;
11582;SDS011;34299;50.820;4.548;2023-07-31T09:38:07;5.50;;;2.67;;
11582;SDS011;34299;50.820;4.548;2023-07-31T09:40:37;3.20;;;2.67;;
11582;SDS011;34299;50.820;4.548;2023-07-31T09:43:06;5.77;;;3.00;;
11582;SDS011;34299;50.820;4.548;2023-07-31T09:45:35;5.93;;;2.80;;
11582;SDS011;34299;50.820;4.548;2023-07-31T09:48:03;4.87;;;2.47;;
11582;SDS011;34299;50.820;4.548;2023-07-31T09:50:34;5.50;;;2.67;;
11582;SDS011;34299;50.820;4.548;2023-07-31T09:53:03;4.60;;;3.10;;
11582;SDS011;34299;50.820;4.548;2023-07-31T09:55:30;5.50;;;2.80;;
11582;SDS011;34299;50.820;4.548;2023-07-31T09:57:59;7.17;;;3.10;;
11582;SDS011;34299;50.820;4.548;2023-07-31T10:00:28;8.70;;;3.50;;
11582;SDS011;34299;50.820;4.548;2023-07-31T10:02:57;6.40;;;3.43;;
11582;SDS011;34299;50.820;4.548;2023-07-31T10:05:25;6.93;;;3.20;;
11582;SDS011;34299;50.820;4.548;2023-07-31T10:07:56;7.03;;;3.10;;
11582;SDS011;34299;50.820;4.548;2023-07-31T10:10:23;6.70;;;3.67;;
11582;SDS011;34299;50.820;4.548;2023-07-31T10:12:52;9.07;;;3.77;;
11582;SDS011;34299;50.820;4.548;2023-07-31T10:15:23;6.37;;;3.43;;
11582;SDS011;34299;50.820;4.548;2023-07-31T10:17:51;8.80;;;3.87;;
11582;SDS011;34299;50.820;4.548;2023-07-31T10:20:20;7.00;;;3.80;;
11582;SDS011;34299;50.820;4.548;2023-07-31T10:22:47;7.90;;;4.03;;
11582;SDS011;34299;50.820;4.548;2023-07-31T10:25:15;4.50;;;3.43;;
11582;SDS011;34299;50.820;4.548;2023-07-31T10:27:42;9.33;;;4.63;;
11582;SDS011;34299;50.820;4.548;2023-07-31T10:30:10;7.03;;;4.40;;
11582;SDS011;34299;50.820;4.548;2023-07-31T10:32:42;6.43;;;3.80;;
11582;SDS011;34299;50.820;4.548;2023-07-31T10:35:10;11.30;;;5.03;;
11582;SDS011;34299;50.820;4.548;2023-07-31T10:37:38;5.73;;;3.53;;
11582;SDS011;34299;50.820;4.548;2023-07-31T10:40:09;6.23;;;4.00;;
11582;SDS011;34299;50.820;4.548;2023-07-31T10:42:38;6.83;;;3.60;;
11582;SDS011;34299;50.820;4.548;2023-07-31T10:45:13;6.43;;;3.70;;
11582;SDS011;34299;50.820;4.548;2023-07-31T10:47:51;7.33;;;3.30;;
11582;SDS011;34299;50.820;4.548;2023-07-31T10:50:25;8.87;;;3.40;;
11582;SDS011;34299;50.820;4.548;2023-07-31T10:52:53;6.63;;;3.33;;
11582;SDS011;34299;50.820;4.548;2023-07-31T10:55:24;5.67;;;3.67;;
11582;SDS011;34299;50.820;4.548;2023-07-31T10:57:56;11.67;;;4.10;;
11582;SDS011;34299;50.820;4.548;2023-07-31T11:00:25;9.27;;;3.77;;
11582;SDS011;34299;50.820;4.548;2023-07-31T11:02:59;11.37;;;4.17;;
11582;SDS011;34299;50.820;4.548;2023-07-31T11:08:28;7.20;;;3.43;;
11582;SDS011;34299;50.820;4.548;2023-07-31T11:11:06;8.43;;;4.03;;
11582;SDS011;34299;50.820;4.548;2023-07-31T11:13:39;5.33;;;3.20;;
11582;SDS011;34299;50.820;4.548;2023-07-31T11:16:07;8.53;;;3.67;;
11582;SDS011;34299;50.820;4.548;2023-07-31T11:18:37;6.23;;;3.40;;
11582;SDS011;34299;50.820;4.548;2023-07-31T11:21:05;9.07;;;3.30;;
11582;SDS011;34299;50.820;4.548;2023-07-31T11:23:32;5.70;;;3.20;;
11582;SDS011;34299;50.820;4.548;2023-07-31T11:26:00;5.37;;;3.00;;
11582;SDS011;34299;50.820;4.548;2023-07-31T11:28:30;6.03;;;3.67;;
11582;SDS011;34299;50.820;4.548;2023-07-31T11:30:59;5.93;;;3.63;;
11582;SDS011;34299;50.820;4.548;2023-07-31T11:33:27;9.57;;;3.43;;
11582;SDS011;34299;50.820;4.548;2023-07-31T11:35:55;6.53;;;3.17;;
11582;SDS011;34299;50.820;4.548;2023-07-31T11:38:22;4.73;;;3.20;;
11582;SDS011;34299;50.820;4.548;2023-07-31T11:40:50;6.00;;;2.90;;
11582;SDS011;34299;50.820;4.548;2023-07-31T11:43:18;7.80;;;3.70;;
11582;SDS011;34299;50.820;4.548;2023-07-31T11:45:46;6.90;;;3.93;;
11582;SDS011;34299;50.820;4.548;2023-07-31T11:48:21;7.73;;;3.37;;
11582;SDS011;34299;50.820;4.548;2023-07-31T11:50:50;8.33;;;3.97;;
11582;SDS011;34299;50.820;4.548;2023-07-31T11:53:21;5.33;;;3.00;;
11582;SDS011;34299;50.820;4.548;2023-07-31T11:55:51;5.40;;;3.10;;
11582;SDS011;34299;50.820;4.548;2023-07-31T11:58:18;5.63;;;3.47;;
11582;SDS011;34299;50.820;4.548;2023-07-31T12:00:46;7.53;;;3.30;;
11582;SDS011;34299;50.820;4.548;2023-07-31T12:03:13;6.53;;;3.47;;
11582;SDS011;34299;50.820;4.548;2023-07-31T12:05:40;5.50;;;3.33;;
11582;SDS011;34299;50.820;4.548;2023-07-31T12:08:10;4.77;;;2.80;;
11582;SDS011;34299;50.820;4.548;2023-07-31T12:10:39;6.77;;;3.73;;
11582;SDS011;34299;50.820;4.548;2023-07-31T12:13:08;7.70;;;2.97;;
11582;SDS011;34299;50.820;4.548;2023-07-31T12:15:39;5.97;;;2.93;;
11582;SDS011;34299;50.820;4.548;2023-07-31T12:18:08;5.77;;;3.27;;
11582;SDS011;34299;50.820;4.548;2023-07-31T12:20:39;7.00;;;3.77;;
11582;SDS011;34299;50.820;4.548;2023-07-31T12:23:17;6.80;;;3.33;;
11582;SDS011;34299;50.820;4.548;2023-07-31T12:25:54;8.90;;;3.67;;
11582;SDS011;34299;50.820;4.548;2023-07-31T12:28:26;7.60;;;3.37;;
11582;SDS011;34299;50.820;4.548;2023-07-31T12:30:56;7.40;;;3.40;;
11582;SDS011;34299;50.820;4.548;2023-07-31T12:33:24;6.50;;;3.30;;
11582;SDS011;34299;50.820;4.548;2023-07-31T12:35:56;7.30;;;3.40;;
11582;SDS011;34299;50.820;4.548;2023-07-31T12:38:23;4.90;;;3.00;;
11582;SDS011;34299;50.820;4.548;2023-07-31T12:40:51;6.97;;;3.83;;
11582;SDS011;34299;50.820;4.548;2023-07-31T12:43:18;6.23;;;2.97;;
11582;SDS011;34299;50.820;4.548;2023-07-31T12:45:45;7.20;;;3.93;;
11582;SDS011;34299;50.820;4.548;2023-07-31T12:48:12;7.37;;;3.40;;
11582;SDS011;34299;50.820;4.548;2023-07-31T12:50:40;7.97;;;3.83;;
11582;SDS011;34299;50.820;4.548;2023-07-31T12:53:07;7.30;;;4.00;;
11582;SDS011;34299;50.820;4.548;2023-07-31T12:55:34;9.97;;;4.63;;
11582;SDS011;34299;50.820;4.548;2023-07-31T12:58:03;9.37;;;3.63;;
11582;SDS011;34299;50.820;4.548;2023-07-31T13:00:30;5.63;;;3.50;;
11582;SDS011;34299;50.820;4.548;2023-07-31T13:02:57;6.37;;;3.70;;
11582;SDS011;34299;50.820;4.548;2023-07-31T13:05:24;7.87;;;3.83;;
11582;SDS011;34299;50.820;4.548;2023-07-31T13:07:51;6.03;;;3.40;;
11582;SDS011;34299;50.820;4.548;2023-07-31T13:10:18;6.20;;;4.13;;
11582;SDS011;34299;50.820;4.548;2023-07-31T13:12:45;5.90;;;3.40;;
11582;SDS011;34299;50.820;4.548;2023-07-31T13:15:13;7.47;;;3.47;;
11582;SDS011;34299;50.820;4.548;2023-07-31T13:17:41;6.00;;;3.57;;
11582;SDS011;34299;50.820;4.548;2023-07-31T13:20:08;7.57;;;3.17;;
11582;SDS011;34299;50.820;4.548;2023-07-31T13:22:35;7.10;;;3.60;;
11582;SDS011;34299;50.820;4.548;2023-07-31T13:25:02;8.80;;;3.50;;
11582;SDS011;34299;50.820;4.548;2023-07-31T13:27:30;11.80;;;3.40;;
11582;SDS011;34299;50.820;4.548;2023-07-31T13:29:57;6.57;;;4.20;;
11582;SDS011;34299;50.820;4.548;2023-07-31T13:32:25;6.97;;;3.50;;
11582;SDS011;34299;50.820;4.548;2023-07-31T13:34:52;5.70;;;2.93;;
11582;SDS011;34299;50.820;4.548;2023-07-31T13:37:19;5.83;;;2.80;;
11582;SDS011;34299;50.820;4.548;2023-07-31T13:39:46;7.07;;;3.27;;
11582;SDS011;34299;50.820;4.548;2023-07-31T13:42:13;5.77;;;3.27;;
11582;SDS011;34299;50.820;4.548;2023-07-31T13:44:40;4.03;;;2.37;;
11582;SDS011;34299;50.820;4.548;2023-07-31T13:47:08;6.53;;;2.67;;
11582;SDS011;34299;50.820;4.548;2023-07-31T13:49:36;3.53;;;2.10;;
11582;SDS011;34299;50.820;4.548;2023-07-31T13:52:04;4.70;;;2.67;;
11582;SDS011;34299;50.820;4.548;2023-07-31T13:54:31;4.63;;;2.40;;
11582;SDS011;34299;50.820;4.548;2023-07-31T13:56:58;4.40;;;2.67;;
11582;SDS011;34299;50.820;4.548;2023-07-31T13:59:25;5.67;;;2.63;;
11582;SDS011;34299;50.820;4.548;2023-07-31T14:01:52;4.40;;;2.43;;
11582;SDS011;34299;50.820;4.548;2023-07-31T14:04:19;6.17;;;2.40;;
11582;SDS011;34299;50.820;4.548;2023-07-31T14:06:47;2.67;;;2.03;;
11582;SDS011;34299;50.820;4.548;2023-07-31T14:09:15;4.40;;;2.80;;
11582;SDS011;34299;50.820;4.548;2023-07-31T14:11:42;4.17;;;2.53;;
11582;SDS011;34299;50.820;4.548;2023-07-31T14:14:09;6.47;;;2.87;;
11582;SDS011;34299;50.820;4.548;2023-07-31T14:16:37;3.77;;;2.40;;
11582;SDS011;34299;50.820;4.548;2023-07-31T14:19:04;5.50;;;3.37;;
11582;SDS011;34299;50.820;4.548;2023-07-31T14:21:32;5.37;;;2.30;;
11582;SDS011;34299;50.820;4.548;2023-07-31T14:24:00;4.10;;;2.57;;
11582;SDS011;34299;50.820;4.548;2023-07-31T14:26:27;5.90;;;2.83;;
11582;SDS011;34299;50.820;4.548;2023-07-31T14:28:54;4.13;;;2.63;;
11582;SDS011;34299;50.820;4.548;2023-07-31T14:31:21;4.90;;;2.97;;
11582;SDS011;34299;50.820;4.548;2023-07-31T14:33:48;5.87;;;2.93;;
11582;SDS011;34299;50.820;4.548;2023-07-31T14:36:15;6.47;;;2.70;;
11582;SDS011;34299;50.820;4.548;2023-07-31T14:38:42;5.83;;;2.90;;
11582;SDS011;34299;50.820;4.548;2023-07-31T14:41:10;4.63;;;2.70;;
11582;SDS011;34299;50.820;4.548;2023-07-31T14:43:37;5.47;;;2.87;;
11582;SDS011;34299;50.820;4.548;2023-07-31T14:46:04;3.13;;;2.63;;
11582;SDS011;34299;50.820;4.548;2023-07-31T14:48:31;5.33;;;2.47;;
11582;SDS011;34299;50.820;4.548;2023-07-31T14:50:59;4.60;;;2.73;;
11582;SDS011;34299;50.820;4.548;2023-07-31T14:53:26;4.30;;;2.60;;